Time;durP1;ratioP1;P1;durP2;ratioP2;P2;SDS_P1;SDS_P2;PMS_P1;PMS_P2;Temp;Humidity;BMP_temperature;BMP_pressure;BME280_temperature;BME280_humidity;BME280_pressure;Samples;Min_cycle;Max_cycle;Signal;HPM_P1;HPM_P2
2022/07/20 00:00:57;;;;;;;4.82;3.45;;;32.70;39.40;;;;;;4929830;29;20044;-53
2022/07/20 00:03:24;;;;;;;7.93;4.30;;;32.80;39.50;;;;;;4946116;29;20086;-52
2022/07/20 00:05:51;;;;;;;8.50;4.28;;;32.70;39.40;;;;;;4949456;28;20044;-53
2022/07/20 00:11:19;;;;;;;8.15;3.65;;;32.60;39.30;;;;;;4949593;28;20057;-53
2022/07/20 00:11:20;;;;;;;5.13;3.38;;;32.60;39.30;;;;;;4951859;28;20043;-52
2022/07/20 00:13:47;;;;;;;5.65;3.47;;;32.60;39.40;;;;;;4929510;29;20051;-51
2022/07/20 00:16:16;;;;;;;4.05;3.63;;;32.50;39.50;;;;;;4931310;29;20053;-53
2022/07/20 00:18:43;;;;;;;5.93;3.72;;;32.50;40.20;;;;;;4940006;28;20047;-53
2022/07/20 00:21:10;;;;;;;8.32;3.45;;;32.50;40.90;;;;;;4936774;29;20139;-52
2022/07/20 00:23:37;;;;;;;7.82;2.88;;;32.40;41.40;;;;;;4930995;29;20060;-52
2022/07/20 00:26:04;;;;;;;4.55;4.07;;;32.40;41.90;;;;;;4931062;29;20062;-52
2022/07/20 00:28:31;;;;;;;4.78;3.08;;;32.30;42.00;;;;;;4930626;29;20432;-52
2022/07/20 00:30:59;;;;;;;8.60;3.70;;;32.30;41.90;;;;;;4931260;29;20048;-52
2022/07/20 00:33:27;;;;;;;7.32;3.72;;;32.20;41.80;;;;;;4944695;29;20538;-53
2022/07/20 00:35:54;;;;;;;4.22;3.72;;;32.10;42.00;;;;;;4949210;28;20039;-53
2022/07/20 00:38:21;;;;;;;7.50;2.50;;;32.10;42.00;;;;;;4932989;29;20079;-53
2022/07/20 00:40:48;;;;;;;9.85;3.70;;;32.00;42.20;;;;;;4947700;29;20412;-53
2022/07/20 00:43:15;;;;;;;8.27;2.78;;;32.00;42.80;;;;;;4936294;28;20588;-53
2022/07/20 00:45:42;;;;;;;3.80;3.13;;;31.90;43.00;;;;;;4930732;29;20091;-52
2022/07/20 00:48:09;;;;;;;6.43;3.15;;;31.90;43.60;;;;;;4930841;29;20060;-50
2022/07/20 00:50:38;;;;;;;6.93;3.30;;;31.90;44.30;;;;;;4930711;29;20048;-50
2022/07/20 00:53:06;;;;;;;4.47;3.00;;;31.90;44.50;;;;;;4930568;29;20067;-53
2022/07/20 00:55:34;;;;;;;5.05;3.38;;;31.80;44.80;;;;;;4933455;29;20048;-54
2022/07/20 00:58:01;;;;;;;3.22;2.92;;;31.80;45.00;;;;;;4934093;29;20126;-54
2022/07/20 01:00:28;;;;;;;6.72;3.33;;;31.70;44.90;;;;;;4934531;29;20051;-51
2022/07/20 01:02:55;;;;;;;6.18;3.35;;;31.70;45.10;;;;;;4945777;29;20051;-49
2022/07/20 01:05:22;;;;;;;10.25;3.92;;;31.70;45.10;;;;;;4952536;28;20035;-54
2022/07/20 01:07:51;;;;;;;6.25;3.50;;;31.70;45.20;;;;;;4952583;28;20059;-52
2022/07/20 01:10:18;;;;;;;8.45;3.50;;;31.60;45.50;;;;;;4952816;28;20043;-52
2022/07/20 01:12:48;;;;;;;4.82;4.20;;;31.60;46.00;;;;;;4952078;28;20142;-51
2022/07/20 01:15:15;;;;;;;6.68;3.97;;;31.50;46.40;;;;;;4952503;28;20043;-53
2022/07/20 01:17:42;;;;;;;8.48;5.50;;;31.50;46.30;;;;;;4952567;28;20522;-54
2022/07/20 01:20:15;;;;;;;11.35;4.88;;;31.50;46.60;;;;;;4952159;28;20055;-54
2022/07/20 01:22:44;;;;;;;6.30;4.20;;;31.40;46.70;;;;;;4934687;28;20036;-49
2022/07/20 01:25:11;;;;;;;8.65;4.25;;;31.40;46.80;;;;;;4933957;29;20036;-49
2022/07/20 01:27:38;;;;;;;10.43;5.10;;;31.30;46.90;;;;;;4933648;29;20075;-53
2022/07/20 01:30:06;;;;;;;12.15;5.38;;;31.30;47.10;;;;;;4934117;29;20044;-53
2022/07/20 01:32:33;;;;;;;11.57;5.15;;;31.30;47.10;;;;;;4942762;29;20047;-52
2022/07/20 01:35:00;;;;;;;11.20;6.60;;;31.30;47.30;;;;;;4951562;28;20047;-50
2022/07/20 01:37:29;;;;;;;11.30;5.53;;;31.30;47.60;;;;;;4941313;28;20052;-51
2022/07/20 01:39:58;;;;;;;10.35;6.68;;;31.30;47.80;;;;;;4943466;29;20054;-52
2022/07/20 01:42:25;;;;;;;11.90;7.68;;;31.30;48.20;;;;;;4933631;29;20503;-49
2022/07/20 01:44:52;;;;;;;15.63;8.05;;;31.30;48.30;;;;;;4950668;29;20070;-49
2022/07/20 01:47:20;;;;;;;10.65;7.55;;;31.20;48.50;;;;;;4952311;28;20043;-48
2022/07/20 01:49:47;;;;;;;11.40;7.35;;;31.20;48.60;;;;;;4951086;28;20115;-48
2022/07/20 01:52:14;;;;;;;8.57;6.95;;;31.10;48.70;;;;;;4951975;28;20305;-49
2022/07/20 01:54:41;;;;;;;10.77;7.57;;;31.10;49.00;;;;;;4946804;28;20040;-49
2022/07/20 01:57:09;;;;;;;14.77;9.77;;;31.10;49.20;;;;;;4933386;29;20138;-49
2022/07/20 01:59:36;;;;;;;16.38;9.38;;;31.10;49.30;;;;;;4938235;29;20078;-50
2022/07/20 02:02:03;;;;;;;15.05;9.40;;;31.10;49.30;;;;;;4938054;29;20102;-51
2022/07/20 02:04:30;;;;;;;13.10;8.85;;;31.10;49.50;;;;;;4951316;29;20534;-49
2022/07/20 02:06:57;;;;;;;11.07;8.10;;;31.00;49.40;;;;;;4949438;28;20058;-50
2022/07/20 02:09:24;;;;;;;18.27;11.05;;;31.00;49.50;;;;;;4946680;28;20049;-51
2022/07/20 02:11:51;;;;;;;10.68;9.52;;;31.00;49.60;;;;;;4953518;28;20146;-50
2022/07/20 02:14:20;;;;;;;15.93;9.82;;;31.00;49.80;;;;;;4951625;28;20428;-53
2022/07/20 02:16:47;;;;;;;19.45;10.55;;;30.90;50.00;;;;;;4951239;28;20126;-51
2022/07/20 02:19:14;;;;;;;12.60;11.15;;;30.90;49.90;;;;;;4951419;28;20772;-52
2022/07/20 02:21:41;;;;;;;17.50;9.75;;;30.90;50.50;;;;;;4942381;28;20102;-51
2022/07/20 02:24:09;;;;;;;12.98;10.60;;;30.90;49.80;;;;;;4932458;29;20043;-53
2022/07/20 02:26:36;;;;;;;15.07;10.85;;;30.90;49.80;;;;;;4932846;29;20067;-52
2022/07/20 02:29:03;;;;;;;17.88;12.52;;;30.90;49.60;;;;;;4932830;29;20053;-52
2022/07/20 02:31:31;;;;;;;22.83;11.98;;;30.90;49.60;;;;;;4934914;29;20091;-54
2022/07/20 02:33:59;;;;;;;14.93;11.02;;;30.90;49.40;;;;;;4951252;28;20420;-53
2022/07/20 02:36:26;;;;;;;17.90;11.32;;;30.90;49.50;;;;;;4951061;28;20043;-51
2022/07/20 02:38:53;;;;;;;17.20;11.98;;;30.90;49.40;;;;;;4950828;28;20039;-51
2022/07/20 02:41:20;;;;;;;15.88;11.55;;;30.80;49.40;;;;;;4936546;28;20433;-54
2022/07/20 02:43:47;;;;;;;16.58;13.20;;;30.90;49.50;;;;;;4932269;29;20046;-53
2022/07/20 02:46:14;;;;;;;14.60;10.95;;;30.80;49.50;;;;;;4932498;29;20046;-53
2022/07/20 02:48:42;;;;;;;19.25;14.07;;;30.80;49.40;;;;;;4932459;29;20036;-51
2022/07/20 02:51:09;;;;;;;18.95;12.48;;;30.70;49.00;;;;;;4932497;29;20142;-50
2022/07/20 02:53:36;;;;;;;21.50;13.95;;;30.70;49.00;;;;;;4932265;29;20048;-54
2022/07/20 02:56:04;;;;;;;21.02;12.88;;;30.70;48.90;;;;;;4932308;29;20054;-54
2022/07/20 02:58:30;;;;;;;20.05;14.25;;;30.70;49.00;;;;;;4930959;29;20048;-52
2022/07/20 03:00:58;;;;;;;17.52;13.10;;;30.70;48.90;;;;;;4932194;29;20072;-48
2022/07/20 03:03:25;;;;;;;16.27;12.35;;;30.70;49.00;;;;;;4947146;29;20039;-50
2022/07/20 03:05:53;;;;;;;20.80;13.60;;;30.60;49.10;;;;;;4950328;28;20094;-53
2022/07/20 03:08:20;;;;;;;19.52;13.95;;;30.60;49.40;;;;;;4948947;28;20047;-52
2022/07/20 03:10:47;;;;;;;17.33;11.90;;;30.60;49.70;;;;;;4950455;28;20461;-52
2022/07/20 03:13:14;;;;;;;21.20;12.30;;;30.50;49.80;;;;;;4950366;28;20039;-51
2022/07/20 03:15:41;;;;;;;20.67;11.65;;;30.50;50.00;;;;;;4950279;28;20043;-51
2022/07/20 03:18:08;;;;;;;17.65;11.25;;;30.40;50.00;;;;;;4949935;28;20550;-49
2022/07/20 03:20:36;;;;;;;13.98;11.98;;;30.40;50.10;;;;;;4944323;29;20555;-50
2022/07/20 03:23:05;;;;;;;15.82;14.05;;;30.40;50.20;;;;;;4931397;29;20638;-50
2022/07/20 03:25:32;;;;;;;18.98;12.07;;;30.40;50.40;;;;;;4936106;29;20122;-52
2022/07/20 03:28:00;;;;;;;18.92;10.77;;;30.40;50.50;;;;;;4931580;29;20071;-53
2022/07/20 03:30:28;;;;;;;11.60;10.40;;;30.30;51.10;;;;;;4931354;29;20150;-53
2022/07/20 03:32:55;;;;;;;18.60;12.30;;;30.30;50.60;;;;;;4943237;29;20043;-54
2022/07/20 03:35:23;;;;;;;16.02;12.15;;;30.30;50.60;;;;;;4936500;29;20102;-54
2022/07/20 03:37:50;;;;;;;15.57;11.45;;;30.30;50.60;;;;;;4933023;28;20047;-48
2022/07/20 03:40:19;;;;;;;10.00;9.02;;;30.30;50.60;;;;;;4944207;28;20134;-48
2022/07/20 03:42:46;;;;;;;15.95;9.50;;;30.20;50.40;;;;;;4939950;29;20043;-48
2022/07/20 03:45:13;;;;;;;12.35;9.65;;;30.20;50.30;;;;;;4937906;28;20051;-47
2022/07/20 03:47:40;;;;;;;13.93;8.73;;;30.20;50.10;;;;;;4939274;29;20050;-47
2022/07/20 03:50:07;;;;;;;14.15;9.15;;;30.10;50.10;;;;;;4937449;29;20530;-47
2022/07/20 03:52:34;;;;;;;11.88;8.73;;;30.10;50.40;;;;;;4941394;29;20053;-48
2022/07/20 03:55:02;;;;;;;16.10;8.88;;;30.10;50.50;;;;;;4937149;29;20047;-48
2022/07/20 03:57:30;;;;;;;12.48;7.30;;;30.00;50.80;;;;;;4931118;29;20039;-48
2022/07/20 03:59:57;;;;;;;10.80;7.18;;;30.00;50.90;;;;;;4940881;29;20050;-47
2022/07/20 04:02:24;;;;;;;10.20;7.07;;;29.90;51.50;;;;;;4939496;29;20039;-49
2022/07/20 04:04:51;;;;;;;6.60;5.40;;;29.90;51.60;;;;;;4940100;29;20117;-48
2022/07/20 04:07:18;;;;;;;10.80;6.07;;;29.80;51.20;;;;;;4944444;28;20036;-47
2022/07/20 04:09:46;;;;;;;7.47;4.97;;;29.80;51.40;;;;;;4939221;29;20492;-48
2022/07/20 04:12:15;;;;;;;9.75;5.43;;;29.70;51.30;;;;;;4940974;29;20058;-52
2022/07/20 04:14:44;;;;;;;12.65;6.72;;;29.60;51.50;;;;;;4937502;29;20461;-48
2022/07/20 04:17:12;;;;;;;6.03;4.18;;;29.60;51.60;;;;;;4940975;29;20035;-50
2022/07/20 04:19:39;;;;;;;6.43;5.15;;;29.60;51.30;;;;;;4939870;29;20047;-67
2022/07/20 04:22:06;;;;;;;8.27;5.75;;;29.60;51.10;;;;;;4935700;28;20043;-54
2022/07/20 04:24:34;;;;;;;6.50;5.05;;;29.60;50.90;;;;;;4928382;29;20488;-56
2022/07/20 04:27:01;;;;;;;6.20;4.60;;;29.80;51.20;;;;;;4929722;29;20051;-57
2022/07/20 04:29:28;;;;;;;5.97;4.47;;;30.00;50.20;;;;;;4932827;29;20043;-59
2022/07/20 04:31:58;;;;;;;7.03;3.72;;;30.40;50.40;;;;;;4935468;29;20036;-59
2022/07/20 04:34:27;;;;;;;4.35;2.90;;;30.90;48.30;;;;;;4939198;29;20134;-55
2022/07/20 04:36:54;;;;;;;2.83;2.35;;;31.60;46.20;;;;;;4928218;29;20138;-54
2022/07/20 04:39:21;;;;;;;4.28;3.05;;;32.20;44.70;;;;;;4938208;29;20052;-57
2022/07/20 04:41:48;;;;;;;4.30;2.63;;;32.90;43.40;;;;;;4929983;28;20122;-53
2022/07/20 04:44:15;;;;;;;4.13;2.20;;;33.50;41.30;;;;;;4928190;29;20079;-51
2022/07/20 04:46:42;;;;;;;2.55;2.35;;;34.10;40.10;;;;;;4931645;29;20039;-49
2022/07/20 04:49:11;;;;;;;2.65;2.45;;;34.40;39.90;;;;;;4946297;28;20051;-56
2022/07/20 04:51:38;;;;;;;4.28;4.03;;;34.50;39.90;;;;;;4946330;28;20127;-53
2022/07/20 04:54:06;;;;;;;3.33;2.50;;;34.50;38.70;;;;;;4946307;28;20051;-54
2022/07/20 04:56:33;;;;;;;4.40;3.03;;;34.50;38.60;;;;;;4945365;29;20046;-53
2022/07/20 04:59:00;;;;;;;3.90;3.22;;;34.50;38.30;;;;;;4946714;28;20051;-56
2022/07/20 05:01:27;;;;;;;5.03;2.92;;;34.40;38.30;;;;;;4945911;28;20283;-52
2022/07/20 05:03:54;;;;;;;4.25;3.95;;;34.40;38.60;;;;;;4945500;28;20090;-55
2022/07/20 05:06:22;;;;;;;11.35;3.58;;;34.30;38.70;;;;;;4938682;28;20043;-61
2022/07/20 05:08:49;;;;;;;4.18;3.33;;;34.20;39.00;;;;;;4937727;28;20578;-61
2022/07/20 05:11:16;;;;;;;6.35;4.53;;;34.20;39.20;;;;;;4927649;29;20050;-63
2022/07/20 05:13:43;;;;;;;4.55;3.28;;;34.10;39.60;;;;;;4937312;29;20154;-60
2022/07/20 05:16:10;;;;;;;4.03;2.88;;;34.10;39.90;;;;;;4934011;28;20059;-61
2022/07/20 05:18:38;;;;;;;8.18;2.95;;;34.10;39.70;;;;;;4935061;29;20157;-60
2022/07/20 05:21:06;;;;;;;2.90;2.42;;;34.10;39.70;;;;;;4936164;28;20052;-60
2022/07/20 05:23:34;;;;;;;2.65;2.45;;;34.00;39.70;;;;;;4929278;29;20182;-60
2022/07/20 05:26:02;;;;;;;3.40;3.20;;;34.00;39.60;;;;;;4942931;28;20062;-59
2022/07/20 05:28:30;;;;;;;5.55;3.28;;;34.00;40.10;;;;;;4937903;28;20047;-59
2022/07/20 05:30:57;;;;;;;3.78;2.60;;;34.00;40.00;;;;;;4927525;29;20048;-60
2022/07/20 05:33:24;;;;;;;2.58;2.35;;;34.00;39.80;;;;;;4940033;29;20504;-61
2022/07/20 05:35:51;;;;;;;5.13;3.55;;;33.90;39.80;;;;;;4928003;29;20130;-59
2022/07/20 05:38:18;;;;;;;5.63;2.83;;;33.90;40.40;;;;;;4929514;29;20665;-60
2022/07/20 05:40:47;;;;;;;3.42;2.85;;;33.80;40.30;;;;;;4938242;28;20186;-60
2022/07/20 05:43:15;;;;;;;3.15;2.85;;;33.70;40.10;;;;;;4936093;28;20079;-62
2022/07/20 05:45:42;;;;;;;5.60;3.05;;;33.60;39.80;;;;;;4938728;29;20043;-61
2022/07/20 05:48:11;;;;;;;3.78;2.35;;;33.50;39.70;;;;;;4947751;29;20043;-61
2022/07/20 05:50:41;;;;;;;5.05;3.85;;;33.50;39.80;;;;;;4941541;28;20837;-63
2022/07/20 05:53:09;;;;;;;2.78;2.55;;;33.60;40.40;;;;;;4930002;29;20055;-62
2022/07/20 05:55:38;;;;;;;3.38;2.60;;;33.70;39.50;;;;;;4931319;29;20039;-57
2022/07/20 05:58:07;;;;;;;2.15;2.05;;;33.90;39.30;;;;;;4938302;29;20165;-59
2022/07/20 06:00:35;;;;;;;5.63;3.00;;;34.10;38.90;;;;;;4930618;29;20564;-60
2022/07/20 06:03:03;;;;;;;2.25;2.10;;;34.30;38.40;;;;;;4941762;29;20047;-59
2022/07/20 06:05:30;;;;;;;3.97;3.00;;;34.40;38.20;;;;;;4936525;29;20052;-58
2022/07/20 06:08:00;;;;;;;5.20;2.75;;;34.40;38.20;;;;;;4947069;28;20711;-56
2022/07/20 06:10:27;;;;;;;6.55;2.88;;;34.20;38.40;;;;;;4930418;29;20043;-56
2022/07/20 06:12:55;;;;;;;2.45;2.25;;;34.10;38.80;;;;;;4946225;28;20070;-59
2022/07/20 06:15:25;;;;;;;4.57;2.92;;;33.90;38.90;;;;;;4940152;28;20051;-61
2022/07/20 06:17:53;;;;;;;1.92;1.60;;;33.70;39.20;;;;;;4937617;29;20127;-59
2022/07/20 06:20:21;;;;;;;3.13;1.90;;;33.50;39.40;;;;;;4948632;28;20036;-60
2022/07/20 06:22:48;;;;;;;3.30;2.17;;;33.40;39.70;;;;;;4949496;28;20039;-63
2022/07/20 06:25:17;;;;;;;4.60;2.92;;;33.30;40.00;;;;;;4949954;28;20106;-61
2022/07/20 06:27:45;;;;;;;4.55;1.83;;;33.10;40.20;;;;;;4947785;29;20572;-61
2022/07/20 06:30:14;;;;;;;7.45;2.45;;;33.00;40.50;;;;;;4949061;29;20507;-61
2022/07/20 06:32:43;;;;;;;2.58;1.73;;;32.90;40.60;;;;;;4939500;29;20052;-60
2022/07/20 06:35:10;;;;;;;1.98;1.73;;;32.80;40.90;;;;;;4944785;28;20051;-60
2022/07/20 06:37:39;;;;;;;2.75;1.73;;;32.70;41.00;;;;;;4943452;29;20456;-61
2022/07/20 06:40:07;;;;;;;5.15;1.33;;;32.70;41.30;;;;;;4938952;29;20039;-60
2022/07/20 06:42:34;;;;;;;2.33;1.92;;;32.60;41.40;;;;;;4935000;29;20593;-61
2022/07/20 06:45:01;;;;;;;3.85;1.67;;;32.50;41.60;;;;;;4945939;29;20109;-61
2022/07/20 06:47:29;;;;;;;4.47;1.55;;;32.50;41.80;;;;;;4943563;28;20046;-60
2022/07/20 06:49:57;;;;;;;2.95;1.60;;;32.40;42.00;;;;;;4944855;29;20098;-61
2022/07/20 06:52:24;;;;;;;1.77;1.67;;;32.40;42.10;;;;;;4937771;29;20154;-61
2022/07/20 06:54:51;;;;;;;1.48;1.38;;;32.30;42.10;;;;;;4935095;29;20074;-61
2022/07/20 06:57:18;;;;;;;3.13;1.58;;;32.20;42.10;;;;;;4938665;29;20054;-60
2022/07/20 06:59:45;;;;;;;1.25;1.15;;;32.20;42.20;;;;;;4943129;29;20051;-61
2022/07/20 07:02:12;;;;;;;2.97;1.60;;;32.20;42.30;;;;;;4937276;29;20062;-61
2022/07/20 07:04:39;;;;;;;1.50;1.13;;;32.10;42.30;;;;;;4940129;29;20051;-62
2022/07/20 07:07:08;;;;;;;7.32;1.42;;;32.00;42.40;;;;;;4937667;29;20956;-61
2022/07/20 07:09:35;;;;;;;1.63;1.23;;;32.00;42.50;;;;;;4941536;29;20055;-62
2022/07/20 07:12:02;;;;;;;1.52;0.98;;;32.00;42.60;;;;;;4936069;29;20435;-61
2022/07/20 07:14:29;;;;;;;3.95;0.98;;;31.90;42.60;;;;;;4944755;28;20876;-61
2022/07/20 07:16:56;;;;;;;1.83;1.15;;;31.80;42.60;;;;;;4942923;29;20071;-60
2022/07/20 07:19:23;;;;;;;2.25;2.05;;;31.80;42.70;;;;;;4934160;29;20603;-60
2022/07/20 07:21:50;;;;;;;2.75;1.30;;;31.70;42.70;;;;;;4939990;29;20066;-60
2022/07/20 07:24:18;;;;;;;2.58;1.13;;;31.70;42.90;;;;;;4942526;29;20043;-60
2022/07/20 07:26:46;;;;;;;1.73;1.55;;;31.70;43.20;;;;;;4941008;28;20043;-59
2022/07/20 07:29:14;;;;;;;2.30;1.80;;;31.60;42.90;;;;;;4947786;28;20459;-59
2022/07/20 07:31:41;;;;;;;0.77;0.77;;;31.60;43.00;;;;;;4939583;28;20138;-61
2022/07/20 07:34:08;;;;;;;1.98;1.55;;;31.60;43.20;;;;;;4940123;28;20051;-60
2022/07/20 07:36:35;;;;;;;5.00;1.13;;;31.60;43.30;;;;;;4949522;28;20119;-59
2022/07/20 07:39:02;;;;;;;2.25;1.88;;;31.60;43.40;;;;;;4943145;28;20043;-58
2022/07/20 07:41:31;;;;;;;1.77;1.10;;;31.50;43.40;;;;;;4940176;28;20044;-59
2022/07/20 07:43:58;;;;;;;3.00;1.63;;;31.50;43.50;;;;;;4940461;29;20047;-60
2022/07/20 07:46:25;;;;;;;3.70;1.48;;;31.50;43.70;;;;;;4949631;28;20053;-60
2022/07/20 07:48:52;;;;;;;2.83;2.35;;;31.50;43.80;;;;;;4938218;28;20044;-60
2022/07/20 07:51:19;;;;;;;4.97;1.77;;;31.50;43.80;;;;;;4943681;29;20043;-60
2022/07/20 07:53:47;;;;;;;4.13;1.55;;;31.50;43.90;;;;;;4949419;28;20127;-61
2022/07/20 07:56:14;;;;;;;3.90;2.28;;;31.40;43.90;;;;;;4945723;28;20050;-60
2022/07/20 07:58:42;;;;;;;2.50;2.05;;;31.40;44.00;;;;;;4942914;28;20087;-60
2022/07/20 08:01:09;;;;;;;1.63;1.38;;;31.40;44.00;;;;;;4942316;28;20047;-59
2022/07/20 08:03:36;;;;;;;2.60;1.20;;;31.30;44.00;;;;;;4945308;28;20039;-60
2022/07/20 08:06:04;;;;;;;1.25;0.82;;;31.30;44.10;;;;;;4949939;28;20043;-60
2022/07/20 08:08:32;;;;;;;5.53;3.40;;;31.30;44.20;;;;;;4948403;28;20051;-60
2022/07/20 08:10:59;;;;;;;2.72;2.50;;;31.20;44.30;;;;;;4941565;28;20481;-63
2022/07/20 08:13:27;;;;;;;3.67;2.47;;;31.30;44.40;;;;;;4930480;29;20047;-60
2022/07/20 08:15:55;;;;;;;2.90;1.75;;;31.20;44.40;;;;;;4931133;29;20048;-60
2022/07/20 08:18:23;;;;;;;2.70;2.00;;;31.20;44.30;;;;;;4947071;29;20054;-61
2022/07/20 08:20:50;;;;;;;3.70;2.50;;;31.10;44.30;;;;;;4945712;28;20432;-61
2022/07/20 08:23:17;;;;;;;2.88;1.80;;;31.10;44.30;;;;;;4948432;28;20130;-61
2022/07/20 08:25:44;;;;;;;3.13;2.53;;;31.10;44.30;;;;;;4947416;28;20080;-61
2022/07/20 08:28:14;;;;;;;2.88;2.22;;;31.00;44.30;;;;;;4944384;28;20051;-60
2022/07/20 08:30:43;;;;;;;2.65;1.75;;;31.00;44.30;;;;;;4941348;29;20047;-60
2022/07/20 08:33:11;;;;;;;3.03;1.98;;;31.00;44.40;;;;;;4946147;29;20050;-59
2022/07/20 10:05:06;;;;;;;;;;;29.60;49.50;;;;;;5069130;27;20910;-59
2022/07/20 10:07:33;;;;;;;4.78;1.48;;;31.10;48.50;;;;;;5064866;28;19939;-59
2022/07/20 10:10:01;;;;;;;3.88;1.33;;;31.10;48.60;;;;;;5062439;28;20062;-59
2022/07/20 10:12:29;;;;;;;5.40;1.10;;;31.10;49.10;;;;;;5064145;28;20047;-59
2022/07/20 10:14:59;;;;;;;3.35;1.65;;;31.10;48.40;;;;;;5064332;28;20045;-59
2022/07/20 10:17:29;;;;;;;3.92;1.00;;;31.10;48.20;;;;;;5064567;28;20127;-59
2022/07/20 10:19:56;;;;;;;2.85;1.63;;;31.10;48.10;;;;;;5064276;28;20041;-59
2022/07/20 10:22:25;;;;;;;3.47;1.00;;;31.10;48.00;;;;;;5064699;28;20402;-59
2022/07/20 10:25:16;;;;;;;3.17;1.55;;;31.10;47.80;;;;;;5064056;28;20041;-59
2022/07/20 10:27:43;;;;;;;5.43;1.33;;;31.20;47.80;;;;;;5060056;28;20106;-59
2022/07/20 10:30:18;;;;;;;2.78;1.00;;;31.20;47.70;;;;;;5064971;28;20847;-59
2022/07/20 10:32:56;;;;;;;5.82;1.05;;;31.20;47.50;;;;;;5064869;28;20048;-60
2022/07/20 10:35:28;;;;;;;1.90;0.77;;;31.20;47.40;;;;;;5064006;28;20033;-60
2022/07/20 10:37:58;;;;;;;2.63;1.60;;;31.20;47.30;;;;;;5064015;28;20130;-60
2022/07/20 10:40:28;;;;;;;2.25;0.73;;;31.20;47.20;;;;;;5063941;28;20164;-60
2022/07/20 10:43:12;;;;;;;1.02;0.65;;;31.20;47.10;;;;;;5066940;28;20543;-61
2022/07/20 10:45:40;;;;;;;2.25;0.68;;;31.30;47.00;;;;;;5058316;28;20151;-61
2022/07/20 10:48:18;;;;;;;1.10;0.60;;;31.30;47.00;;;;;;5063949;28;20075;-60
2022/07/20 10:50:49;;;;;;;0.82;0.50;;;31.30;46.80;;;;;;5063776;28;20048;-60
2022/07/20 10:53:36;;;;;;;0.75;0.52;;;31.30;46.80;;;;;;5063295;28;20387;-59
2022/07/20 10:56:06;;;;;;;4.45;0.65;;;31.30;46.60;;;;;;5056684;28;20045;-59
2022/07/20 10:58:35;;;;;;;1.95;0.40;;;31.30;46.60;;;;;;5063730;28;20036;-59
2022/07/20 11:01:04;;;;;;;2.55;1.20;;;31.30;46.50;;;;;;5063827;28;20140;-59
2022/07/20 11:03:36;;;;;;;0.52;0.38;;;31.30;46.40;;;;;;5063789;28;20144;-59
2022/07/20 11:06:07;;;;;;;0.68;0.68;;;31.40;46.40;;;;;;5050500;28;20495;-59
2022/07/20 11:08:36;;;;;;;1.08;0.15;;;31.30;46.30;;;;;;5043962;28;20048;-59
2022/07/20 11:11:04;;;;;;;0.40;0.25;;;31.40;46.30;;;;;;5043851;28;20037;-59
2022/07/20 11:13:32;;;;;;;1.45;0.35;;;31.40;46.20;;;;;;5044047;28;20049;-59
2022/07/20 11:16:00;;;;;;;0.93;0.30;;;31.40;46.10;;;;;;5050182;28;20102;-59
2022/07/20 11:18:29;;;;;;;0.40;0.20;;;31.40;46.00;;;;;;5043990;28;20064;-58
2022/07/20 11:20:58;;;;;;;1.17;0.38;;;31.40;46.00;;;;;;5050491;28;20524;-59
2022/07/20 11:23:28;;;;;;;1.75;0.50;;;31.40;45.90;;;;;;5049804;28;20472;-60
2022/07/20 11:25:58;;;;;;;1.80;0.20;;;31.40;45.80;;;;;;5049885;28;20041;-59
2022/07/20 11:28:28;;;;;;;1.20;0.50;;;31.40;45.80;;;;;;5050059;28;20426;-59
2022/07/20 11:30:56;;;;;;;1.25;0.52;;;31.40;45.70;;;;;;5042948;28;20049;-59
2022/07/20 11:33:29;;;;;;;1.27;0.38;;;31.40;45.70;;;;;;5049305;28;20056;-59
2022/07/20 11:35:59;;;;;;;0.82;0.20;;;31.40;46.20;;;;;;5049721;28;20124;-59
2022/07/20 11:38:35;;;;;;;0.52;0.10;;;31.40;45.60;;;;;;5049915;28;20041;-58
2022/07/20 11:41:05;;;;;;;0.88;0.20;;;31.40;45.50;;;;;;5049759;28;20498;-58
2022/07/20 11:43:32;;;;;;;0.93;0.30;;;31.40;45.50;;;;;;5049811;28;20518;-60
2022/07/20 11:46:09;;;;;;;1.75;0.40;;;31.40;45.40;;;;;;5049739;28;20415;-59
2022/07/20 11:48:37;;;;;;;0.60;0.20;;;31.40;45.30;;;;;;5049547;28;20114;-59
2022/07/20 11:51:04;;;;;;;1.58;0.38;;;31.40;45.30;;;;;;5049389;28;20497;-59
2022/07/20 11:53:33;;;;;;;0.85;0.50;;;31.40;45.30;;;;;;5049360;28;20589;-59
2022/07/20 11:56:04;;;;;;;1.02;0.35;;;31.40;45.30;;;;;;5049065;28;20048;-59
2022/07/20 11:58:34;;;;;;;1.10;0.47;;;31.40;45.30;;;;;;5047348;28;20049;-59
2022/07/20 12:01:04;;;;;;;0.90;0.43;;;31.40;45.20;;;;;;5042571;28;20128;-59
2022/07/20 12:03:35;;;;;;;0.45;0.45;;;31.40;45.20;;;;;;5048636;28;20152;-59
2022/07/20 12:06:04;;;;;;;1.08;0.43;;;31.40;45.10;;;;;;5049028;28;20067;-59
2022/07/20 12:08:31;;;;;;;1.55;0.52;;;31.50;45.20;;;;;;5049185;28;20037;-61
2022/07/20 12:10:59;;;;;;;2.08;0.40;;;31.50;45.70;;;;;;5049064;28;20071;-60
2022/07/20 12:13:28;;;;;;;1.70;0.88;;;31.50;45.10;;;;;;5048626;28;20055;-60
2022/07/20 12:15:58;;;;;;;2.25;0.85;;;31.50;45.10;;;;;;5048391;28;20053;-61
2022/07/20 12:18:40;;;;;;;1.88;0.30;;;31.60;45.20;;;;;;5041086;28;20129;-58
2022/07/20 12:21:09;;;;;;;4.38;0.93;;;31.50;45.00;;;;;;5048725;28;20502;-59
2022/07/20 12:23:37;;;;;;;2.78;1.35;;;31.50;45.00;;;;;;5048978;28;20060;-59
2022/07/20 12:26:21;;;;;;;1.15;0.35;;;31.60;45.00;;;;;;5041634;28;20063;-59
2022/07/20 12:28:50;;;;;;;0.63;0.50;;;31.60;44.90;;;;;;5048583;28;20072;-60
2022/07/20 12:31:19;;;;;;;1.25;0.75;;;31.60;44.90;;;;;;5048533;28;20502;-60
2022/07/20 12:34:03;;;;;;;4.30;0.68;;;31.60;44.80;;;;;;5048392;28;20080;-59
2022/07/20 12:36:38;;;;;;;1.17;0.50;;;31.60;44.70;;;;;;5042415;28;20111;-59
2022/07/20 12:39:08;;;;;;;0.75;0.30;;;31.60;45.30;;;;;;5043246;28;20053;-58
2022/07/20 12:41:35;;;;;;;1.63;0.65;;;31.60;44.70;;;;;;5048177;28;20451;-60
2022/07/20 12:44:25;;;;;;;2.33;0.38;;;31.60;44.60;;;;;;5048030;28;20033;-59
2022/07/20 12:46:53;;;;;;;2.83;0.52;;;31.60;44.50;;;;;;5048609;28;20041;-60
2022/07/20 12:49:21;;;;;;;1.25;0.98;;;31.60;44.50;;;;;;5047683;28;20037;-59
2022/07/20 12:51:48;;;;;;;1.90;0.47;;;31.70;44.50;;;;;;5046969;28;20040;-59
2022/07/20 12:54:16;;;;;;;1.15;0.50;;;31.60;44.40;;;;;;5048085;28;20048;-60
2022/07/20 12:56:43;;;;;;;1.55;0.50;;;31.70;44.40;;;;;;5047651;28;20574;-60
2022/07/20 12:59:11;;;;;;;0.65;0.30;;;31.70;44.40;;;;;;5047853;28;20076;-59
2022/07/20 13:01:40;;;;;;;0.90;0.68;;;31.70;44.40;;;;;;5048189;28;20052;-59
2022/07/20 13:04:07;;;;;;;1.77;0.40;;;31.70;44.40;;;;;;5045938;28;20075;-60
2022/07/20 13:06:35;;;;;;;0.70;0.30;;;31.80;44.50;;;;;;5047968;28;20139;-60
2022/07/20 13:09:03;;;;;;;2.25;0.52;;;31.80;44.40;;;;;;5048209;28;20037;-58
2022/07/20 13:11:30;;;;;;;2.00;0.68;;;31.80;44.40;;;;;;5047738;28;20064;-59
2022/07/20 13:13:58;;;;;;;2.72;0.68;;;31.80;44.40;;;;;;5047707;28;20136;-60
2022/07/20 13:16:25;;;;;;;0.47;0.40;;;31.90;44.40;;;;;;5047684;28;20041;-60
2022/07/20 13:18:54;;;;;;;1.20;0.50;;;31.90;44.30;;;;;;5047187;28;20124;-60
2022/07/20 13:21:22;;;;;;;1.10;0.75;;;31.90;44.30;;;;;;5047708;28;20041;-59
2022/07/20 13:23:49;;;;;;;0.88;0.82;;;32.00;44.30;;;;;;5048237;28;20041;-59
2022/07/20 13:26:16;;;;;;;3.80;0.40;;;32.00;44.30;;;;;;5047431;28;20525;-58
2022/07/20 13:28:43;;;;;;;0.82;0.40;;;32.00;44.20;;;;;;5047107;28;20037;-59
2022/07/20 13:31:10;;;;;;;0.50;0.50;;;32.00;44.20;;;;;;5047085;28;20381;-59
2022/07/20 13:33:37;;;;;;;1.30;0.52;;;32.00;44.10;;;;;;5045654;28;20041;-59
2022/07/20 13:36:08;;;;;;;2.33;0.30;;;32.10;44.20;;;;;;5047318;28;20089;-59
2022/07/20 13:38:36;;;;;;;2.80;0.50;;;32.10;44.10;;;;;;5047339;28;20049;-59
2022/07/20 13:41:03;;;;;;;1.33;0.30;;;32.10;44.10;;;;;;5047310;28;20040;-59
2022/07/20 13:43:30;;;;;;;3.13;0.57;;;32.20;44.10;;;;;;5047520;28;20128;-60
2022/07/20 13:45:58;;;;;;;1.02;0.50;;;32.20;44.10;;;;;;5047011;28;20052;-59
2022/07/20 13:48:25;;;;;;;5.30;1.50;;;32.20;44.00;;;;;;5046817;28;20080;-58
2022/07/20 13:50:53;;;;;;;3.88;0.70;;;32.30;44.10;;;;;;5047117;28;20037;-59
2022/07/20 13:53:22;;;;;;;1.60;0.40;;;32.30;44.00;;;;;;5047345;28;20045;-59
2022/07/20 13:55:50;;;;;;;1.30;0.47;;;32.30;43.90;;;;;;5046680;28;20041;-59
2022/07/20 13:58:17;;;;;;;0.73;0.45;;;32.30;43.80;;;;;;5047239;28;20045;-60
2022/07/20 14:00:44;;;;;;;2.65;0.43;;;32.40;43.90;;;;;;5047225;28;20127;-59
2022/07/20 14:03:11;;;;;;;2.42;0.35;;;32.40;43.80;;;;;;5046467;28;20053;-59
2022/07/20 14:05:38;;;;;;;2.63;0.45;;;32.40;43.70;;;;;;5045038;28;20072;-60
2022/07/20 14:08:06;;;;;;;0.73;0.40;;;32.40;43.70;;;;;;5047285;28;20045;-60
2022/07/20 14:10:34;;;;;;;1.13;0.82;;;32.50;43.70;;;;;;5046631;28;20042;-59
2022/07/20 14:13:01;;;;;;;3.33;0.50;;;32.50;43.60;;;;;;5044021;28;20041;-59
2022/07/20 14:15:29;;;;;;;0.52;0.40;;;32.50;43.60;;;;;;5043129;28;20045;-58
2022/07/20 14:17:56;;;;;;;0.73;0.20;;;32.50;43.60;;;;;;5046781;28;20128;-59